sensor_id;sensor_type;location;lat;lon;timestamp;temperature;humidity
79187;SHT31;68762;51.980;5.646;2023-04-01T00:01:21;12.4;77.0
79187;SHT31;68762;51.980;5.646;2023-04-01T00:03:50;12.4;76.9
79187;SHT31;68762;51.980;5.646;2023-04-01T00:06:20;12.4;76.7
79187;SHT31;68762;51.980;5.646;2023-04-01T00:08:51;12.5;76.8
79187;SHT31;68762;51.980;5.646;2023-04-01T00:11:20;12.5;76.7
79187;SHT31;68762;51.980;5.646;2023-04-01T00:13:49;12.5;76.7
79187;SHT31;68762;51.980;5.646;2023-04-01T00:16:17;12.5;76.4
79187;SHT31;68762;51.980;5.646;2023-04-01T00:18:46;12.5;76.3
79187;SHT31;68762;51.980;5.646;2023-04-01T00:21:16;12.5;76.3
79187;SHT31;68762;51.980;5.646;2023-04-01T00:23:47;12.6;76.2
79187;SHT31;68762;51.980;5.646;2023-04-01T00:29:35;12.6;76.1
79187;SHT31;68762;51.980;5.646;2023-04-01T00:32:04;12.6;76.0
79187;SHT31;68762;51.980;5.646;2023-04-01T00:34:33;12.6;75.9
79187;SHT31;68762;51.980;5.646;2023-04-01T00:37:01;12.6;76.0
79187;SHT31;68762;51.980;5.646;2023-04-01T00:39:31;12.7;75.9
79187;SHT31;68762;51.980;5.646;2023-04-01T00:42:02;12.7;75.7
79187;SHT31;68762;51.980;5.646;2023-04-01T00:44:33;12.7;75.6
79187;SHT31;68762;51.980;5.646;2023-04-01T00:47:03;12.7;75.5
79187;SHT31;68762;51.980;5.646;2023-04-01T00:49:35;12.7;75.6
79187;SHT31;68762;51.980;5.646;2023-04-01T00:52:07;12.8;75.5
79187;SHT31;68762;51.980;5.646;2023-04-01T00:54:38;12.8;75.5
79187;SHT31;68762;51.980;5.646;2023-04-01T00:57:13;12.8;75.4
79187;SHT31;68762;51.980;5.646;2023-04-01T00:59:46;12.8;75.4
79187;SHT31;68762;51.980;5.646;2023-04-01T01:02:16;12.8;75.6
79187;SHT31;68762;51.980;5.646;2023-04-01T01:04:45;12.8;75.5
79187;SHT31;68762;51.980;5.646;2023-04-01T01:07:25;12.8;75.7
79187;SHT31;68762;51.980;5.646;2023-04-01T01:10:02;12.8;75.6
79187;SHT31;68762;51.980;5.646;2023-04-01T01:12:37;12.8;75.6
79187;SHT31;68762;51.980;5.646;2023-04-01T01:15:19;12.8;75.7
79187;SHT31;68762;51.980;5.646;2023-04-01T01:17:58;12.9;75.8
79187;SHT31;68762;51.980;5.646;2023-04-01T01:21:01;13.0;75.3
79187;SHT31;68762;51.980;5.646;2023-04-01T01:24:10;13.0;74.6
79187;SHT31;68762;51.980;5.646;2023-04-01T01:26:55;13.1;74.2
79187;SHT31;68762;51.980;5.646;2023-04-01T01:30:39;13.1;74.0
79187;SHT31;68762;51.980;5.646;2023-04-01T01:33:34;13.1;73.6
79187;SHT31;68762;51.980;5.646;2023-04-01T01:36:09;13.1;73.1
79187;SHT31;68762;51.980;5.646;2023-04-01T01:38:40;13.1;73.0
79187;SHT31;68762;51.980;5.646;2023-04-01T01:41:19;13.1;72.7
79187;SHT31;68762;51.980;5.646;2023-04-01T01:43:51;13.1;72.8
79187;SHT31;68762;51.980;5.646;2023-04-01T01:46:24;13.1;72.6
79187;SHT31;68762;51.980;5.646;2023-04-01T01:48:55;13.1;72.5
79187;SHT31;68762;51.980;5.646;2023-04-01T01:51:27;13.1;72.3
79187;SHT31;68762;51.980;5.646;2023-04-01T01:53:56;13.1;72.3
79187;SHT31;68762;51.980;5.646;2023-04-01T01:56:28;13.1;72.1
79187;SHT31;68762;51.980;5.646;2023-04-01T01:59:01;13.1;71.9
79187;SHT31;68762;51.980;5.646;2023-04-01T02:01:35;13.1;72.0
79187;SHT31;68762;51.980;5.646;2023-04-01T02:04:06;13.1;72.0
79187;SHT31;68762;51.980;5.646;2023-04-01T02:06:39;13.0;71.9
79187;SHT31;68762;51.980;5.646;2023-04-01T02:09:10;13.0;71.9
79187;SHT31;68762;51.980;5.646;2023-04-01T02:11:44;13.0;72.1
79187;SHT31;68762;51.980;5.646;2023-04-01T02:14:17;13.0;72.4
79187;SHT31;68762;51.980;5.646;2023-04-01T02:16:53;13.0;72.5
79187;SHT31;68762;51.980;5.646;2023-04-01T02:19:27;12.9;72.7
79187;SHT31;68762;51.980;5.646;2023-04-01T02:22:01;12.9;72.8
79187;SHT31;68762;51.980;5.646;2023-04-01T02:24:33;12.9;73.1
79187;SHT31;68762;51.980;5.646;2023-04-01T02:27:04;12.9;73.2
79187;SHT31;68762;51.980;5.646;2023-04-01T02:29:35;12.8;73.2
79187;SHT31;68762;51.980;5.646;2023-04-01T02:32:06;12.8;73.2
79187;SHT31;68762;51.980;5.646;2023-04-01T02:34:37;12.8;73.4
79187;SHT31;68762;51.980;5.646;2023-04-01T02:37:06;12.8;73.3
79187;SHT31;68762;51.980;5.646;2023-04-01T02:39:35;12.7;73.2
79187;SHT31;68762;51.980;5.646;2023-04-01T02:42:07;12.7;73.5
79187;SHT31;68762;51.980;5.646;2023-04-01T02:44:37;12.7;73.6
79187;SHT31;68762;51.980;5.646;2023-04-01T02:47:05;12.7;73.7
79187;SHT31;68762;51.980;5.646;2023-04-01T02:49:34;12.7;73.8
79187;SHT31;68762;51.980;5.646;2023-04-01T02:52:03;12.7;73.7
79187;SHT31;68762;51.980;5.646;2023-04-01T02:54:31;12.6;73.6
79187;SHT31;68762;51.980;5.646;2023-04-01T02:57:00;12.6;73.8
79187;SHT31;68762;51.980;5.646;2023-04-01T02:59:29;12.6;73.6
79187;SHT31;68762;51.980;5.646;2023-04-01T03:01:58;12.6;73.6
79187;SHT31;68762;51.980;5.646;2023-04-01T03:04:26;12.5;73.8
79187;SHT31;68762;51.980;5.646;2023-04-01T03:06:55;12.5;73.8
79187;SHT31;68762;51.980;5.646;2023-04-01T03:09:23;12.5;74.0
79187;SHT31;68762;51.980;5.646;2023-04-01T03:11:52;12.5;74.1
79187;SHT31;68762;51.980;5.646;2023-04-01T03:14:21;12.4;74.3
79187;SHT31;68762;51.980;5.646;2023-04-01T03:16:50;12.4;74.4
79187;SHT31;68762;51.980;5.646;2023-04-01T03:19:18;12.4;74.3
79187;SHT31;68762;51.980;5.646;2023-04-01T03:21:47;12.4;74.4
79187;SHT31;68762;51.980;5.646;2023-04-01T03:24:17;12.4;74.4
79187;SHT31;68762;51.980;5.646;2023-04-01T03:26:46;12.4;74.4
79187;SHT31;68762;51.980;5.646;2023-04-01T03:29:15;12.4;74.6
79187;SHT31;68762;51.980;5.646;2023-04-01T03:31:43;12.4;74.7
79187;SHT31;68762;51.980;5.646;2023-04-01T03:34:12;12.4;74.8
79187;SHT31;68762;51.980;5.646;2023-04-01T03:36:41;12.4;74.5
79187;SHT31;68762;51.980;5.646;2023-04-01T03:39:10;12.4;74.6
79187;SHT31;68762;51.980;5.646;2023-04-01T03:41:38;12.4;74.5
79187;SHT31;68762;51.980;5.646;2023-04-01T03:44:09;12.3;74.4
79187;SHT31;68762;51.980;5.646;2023-04-01T03:46:40;12.3;74.5
79187;SHT31;68762;51.980;5.646;2023-04-01T03:49:09;12.3;74.6
79187;SHT31;68762;51.980;5.646;2023-04-01T03:51:40;12.3;74.7
79187;SHT31;68762;51.980;5.646;2023-04-01T03:54:10;12.3;74.7
79187;SHT31;68762;51.980;5.646;2023-04-01T03:56:39;12.3;74.7
79187;SHT31;68762;51.980;5.646;2023-04-01T03:59:08;12.3;74.8
79187;SHT31;68762;51.980;5.646;2023-04-01T04:01:37;12.3;74.8
79187;SHT31;68762;51.980;5.646;2023-04-01T04:04:05;12.3;74.9
79187;SHT31;68762;51.980;5.646;2023-04-01T04:06:34;12.3;74.8
79187;SHT31;68762;51.980;5.646;2023-04-01T04:09:03;12.3;74.9
79187;SHT31;68762;51.980;5.646;2023-04-01T04:11:32;12.3;75.0
79187;SHT31;68762;51.980;5.646;2023-04-01T04:14:01;12.3;75.1
79187;SHT31;68762;51.980;5.646;2023-04-01T04:16:30;12.3;75.0
79187;SHT31;68762;51.980;5.646;2023-04-01T04:18:58;12.3;75.1
79187;SHT31;68762;51.980;5.646;2023-04-01T04:21:28;12.3;75.2
79187;SHT31;68762;51.980;5.646;2023-04-01T04:23:57;12.3;75.3
79187;SHT31;68762;51.980;5.646;2023-04-01T04:26:26;12.3;75.4
79187;SHT31;68762;51.980;5.646;2023-04-01T04:28:55;12.3;75.6
79187;SHT31;68762;51.980;5.646;2023-04-01T04:31:25;12.3;75.6
79187;SHT31;68762;51.980;5.646;2023-04-01T04:33:58;12.3;76.0
79187;SHT31;68762;51.980;5.646;2023-04-01T04:36:28;12.4;75.7
79187;SHT31;68762;51.980;5.646;2023-04-01T04:39:00;12.4;75.4
79187;SHT31;68762;51.980;5.646;2023-04-01T04:41:29;12.5;75.1
79187;SHT31;68762;51.980;5.646;2023-04-01T04:44:00;12.5;74.9
79187;SHT31;68762;51.980;5.646;2023-04-01T04:46:29;12.5;74.8
79187;SHT31;68762;51.980;5.646;2023-04-01T04:48:57;12.5;74.9
79187;SHT31;68762;51.980;5.646;2023-04-01T04:51:29;12.5;74.8
79187;SHT31;68762;51.980;5.646;2023-04-01T04:54:00;12.5;74.9
79187;SHT31;68762;51.980;5.646;2023-04-01T04:56:29;12.5;74.9
79187;SHT31;68762;51.980;5.646;2023-04-01T04:58:58;12.6;74.9
79187;SHT31;68762;51.980;5.646;2023-04-01T05:01:27;12.6;75.0
79187;SHT31;68762;51.980;5.646;2023-04-01T05:03:57;12.6;74.9
79187;SHT31;68762;51.980;5.646;2023-04-01T05:06:26;12.6;74.9
79187;SHT31;68762;51.980;5.646;2023-04-01T05:08:56;12.6;74.9
79187;SHT31;68762;51.980;5.646;2023-04-01T05:11:25;12.6;74.9
79187;SHT31;68762;51.980;5.646;2023-04-01T05:13:56;12.6;75.0
79187;SHT31;68762;51.980;5.646;2023-04-01T05:16:24;12.6;75.1
79187;SHT31;68762;51.980;5.646;2023-04-01T05:18:53;12.7;75.1
79187;SHT31;68762;51.980;5.646;2023-04-01T05:21:23;12.7;75.2
79187;SHT31;68762;51.980;5.646;2023-04-01T05:23:52;12.7;75.2
79187;SHT31;68762;51.980;5.646;2023-04-01T05:26:20;12.7;75.2
79187;SHT31;68762;51.980;5.646;2023-04-01T05:28:51;12.8;75.1
79187;SHT31;68762;51.980;5.646;2023-04-01T05:31:19;12.8;75.1
79187;SHT31;68762;51.980;5.646;2023-04-01T05:33:50;12.8;75.1
79187;SHT31;68762;51.980;5.646;2023-04-01T05:36:22;12.8;75.0
79187;SHT31;68762;51.980;5.646;2023-04-01T05:38:54;12.9;74.9
79187;SHT31;68762;51.980;5.646;2023-04-01T05:41:23;12.9;75.0
79187;SHT31;68762;51.980;5.646;2023-04-01T05:43:51;12.9;74.9
79187;SHT31;68762;51.980;5.646;2023-04-01T05:46:20;12.9;74.8
79187;SHT31;68762;51.980;5.646;2023-04-01T05:48:50;13.0;74.7
79187;SHT31;68762;51.980;5.646;2023-04-01T05:51:19;13.0;74.8
79187;SHT31;68762;51.980;5.646;2023-04-01T05:53:48;13.0;74.8
79187;SHT31;68762;51.980;5.646;2023-04-01T05:56:17;13.0;74.7
79187;SHT31;68762;51.980;5.646;2023-04-01T05:58:50;13.1;74.6
79187;SHT31;68762;51.980;5.646;2023-04-01T06:01:20;13.1;74.5
79187;SHT31;68762;51.980;5.646;2023-04-01T06:03:50;13.1;74.5
79187;SHT31;68762;51.980;5.646;2023-04-01T06:06:24;13.1;74.5
79187;SHT31;68762;51.980;5.646;2023-04-01T06:08:56;13.1;74.4
79187;SHT31;68762;51.980;5.646;2023-04-01T06:11:37;13.1;74.3
79187;SHT31;68762;51.980;5.646;2023-04-01T06:14:21;13.2;74.2
79187;SHT31;68762;51.980;5.646;2023-04-01T06:17:05;13.2;74.2
79187;SHT31;68762;51.980;5.646;2023-04-01T06:19:44;13.2;74.2
79187;SHT31;68762;51.980;5.646;2023-04-01T06:22:38;13.2;74.3
79187;SHT31;68762;51.980;5.646;2023-04-01T06:25:34;13.2;74.2
79187;SHT31;68762;51.980;5.646;2023-04-01T06:28:39;13.2;74.4
79187;SHT31;68762;51.980;5.646;2023-04-01T06:31:24;13.2;74.5
79187;SHT31;68762;51.980;5.646;2023-04-01T06:34:10;13.2;74.6
79187;SHT31;68762;51.980;5.646;2023-04-01T06:36:57;13.3;74.7
79187;SHT31;68762;51.980;5.646;2023-04-01T06:39:41;13.3;74.5
79187;SHT31;68762;51.980;5.646;2023-04-01T06:42:32;13.3;74.4
79187;SHT31;68762;51.980;5.646;2023-04-01T06:45:19;13.4;74.1
79187;SHT31;68762;51.980;5.646;2023-04-01T06:48:06;13.4;73.9
79187;SHT31;68762;51.980;5.646;2023-04-01T06:50:47;13.4;73.9
79187;SHT31;68762;51.980;5.646;2023-04-01T06:53:23;13.4;73.8
79187;SHT31;68762;51.980;5.646;2023-04-01T06:55:59;13.4;73.6
79187;SHT31;68762;51.980;5.646;2023-04-01T06:58:34;13.5;73.3
79187;SHT31;68762;51.980;5.646;2023-04-01T07:01:08;13.5;73.3
79187;SHT31;68762;51.980;5.646;2023-04-01T07:03:41;13.5;73.2
79187;SHT31;68762;51.980;5.646;2023-04-01T07:06:20;13.5;73.5
79187;SHT31;68762;51.980;5.646;2023-04-01T07:08:53;13.5;73.3
79187;SHT31;68762;51.980;5.646;2023-04-01T07:11:26;13.5;73.7
79187;SHT31;68762;51.980;5.646;2023-04-01T07:14:00;13.5;73.9
79187;SHT31;68762;51.980;5.646;2023-04-01T07:16:32;13.5;73.8
79187;SHT31;68762;51.980;5.646;2023-04-01T07:19:08;13.5;73.8
79187;SHT31;68762;51.980;5.646;2023-04-01T07:21:44;13.5;73.6
79187;SHT31;68762;51.980;5.646;2023-04-01T07:24:21;13.5;73.4
79187;SHT31;68762;51.980;5.646;2023-04-01T07:26:56;13.5;73.6
79187;SHT31;68762;51.980;5.646;2023-04-01T07:29:26;13.5;73.5
79187;SHT31;68762;51.980;5.646;2023-04-01T07:32:09;13.5;73.5
79187;SHT31;68762;51.980;5.646;2023-04-01T07:34:49;13.5;73.7
79187;SHT31;68762;51.980;5.646;2023-04-01T07:37:28;13.5;73.6
79187;SHT31;68762;51.980;5.646;2023-04-01T07:40:10;13.5;73.7
79187;SHT31;68762;51.980;5.646;2023-04-01T07:42:48;13.6;73.7
79187;SHT31;68762;51.980;5.646;2023-04-01T07:45:30;13.6;73.9
79187;SHT31;68762;51.980;5.646;2023-04-01T07:48:10;13.6;73.5
79187;SHT31;68762;51.980;5.646;2023-04-01T07:50:50;13.6;73.8
79187;SHT31;68762;51.980;5.646;2023-04-01T07:53:33;13.6;73.9
79187;SHT31;68762;51.980;5.646;2023-04-01T07:56:09;13.6;73.7
79187;SHT31;68762;51.980;5.646;2023-04-01T07:58:52;13.7;73.5
79187;SHT31;68762;51.980;5.646;2023-04-01T08:01:28;13.7;73.0
79187;SHT31;68762;51.980;5.646;2023-04-01T08:04:14;13.8;72.8
79187;SHT31;68762;51.980;5.646;2023-04-01T08:06:55;13.8;72.4
79187;SHT31;68762;51.980;5.646;2023-04-01T08:09:34;13.8;72.6
79187;SHT31;68762;51.980;5.646;2023-04-01T08:12:17;13.8;72.6
79187;SHT31;68762;51.980;5.646;2023-04-01T08:14:55;13.8;72.9
79187;SHT31;68762;51.980;5.646;2023-04-01T08:17:30;13.9;72.7
79187;SHT31;68762;51.980;5.646;2023-04-01T08:20:17;13.9;72.6
79187;SHT31;68762;51.980;5.646;2023-04-01T08:22:50;13.9;72.4
79187;SHT31;68762;51.980;5.646;2023-04-01T08:25:25;13.9;72.5
79187;SHT31;68762;51.980;5.646;2023-04-01T08:28:04;13.9;72.9
79187;SHT31;68762;51.980;5.646;2023-04-01T08:30:41;14.0;72.9
79187;SHT31;68762;51.980;5.646;2023-04-01T08:33:17;14.0;72.7
79187;SHT31;68762;51.980;5.646;2023-04-01T08:35:52;14.0;73.0
79187;SHT31;68762;51.980;5.646;2023-04-01T08:38:28;14.0;72.7
79187;SHT31;68762;51.980;5.646;2023-04-01T08:41:00;14.0;72.6
79187;SHT31;68762;51.980;5.646;2023-04-01T08:44:04;14.1;73.0
79187;SHT31;68762;51.980;5.646;2023-04-01T08:46:59;14.1;72.5
79187;SHT31;68762;51.980;5.646;2023-04-01T08:49:50;14.1;73.0
79187;SHT31;68762;51.980;5.646;2023-04-01T08:52:34;14.1;72.6
79187;SHT31;68762;51.980;5.646;2023-04-01T08:55:34;14.1;72.7
79187;SHT31;68762;51.980;5.646;2023-04-01T08:58:56;14.1;72.0
79187;SHT31;68762;51.980;5.646;2023-04-01T09:03:07;14.2;72.2
79187;SHT31;68762;51.980;5.646;2023-04-01T09:05:45;14.2;72.4
79187;SHT31;68762;51.980;5.646;2023-04-01T09:08:31;14.2;71.7
79187;SHT31;68762;51.980;5.646;2023-04-01T09:11:50;14.2;71.5
79187;SHT31;68762;51.980;5.646;2023-04-01T09:14:41;14.2;71.8
79187;SHT31;68762;51.980;5.646;2023-04-01T09:17:31;14.2;71.7
79187;SHT31;68762;51.980;5.646;2023-04-01T09:20:23;14.2;72.6
79187;SHT31;68762;51.980;5.646;2023-04-01T09:23:10;14.2;72.3
79187;SHT31;68762;51.980;5.646;2023-04-01T09:26:13;14.3;72.4
79187;SHT31;68762;51.980;5.646;2023-04-01T09:28:57;14.3;72.4
79187;SHT31;68762;51.980;5.646;2023-04-01T09:31:51;14.3;72.6
79187;SHT31;68762;51.980;5.646;2023-04-01T09:34:31;14.3;72.2
79187;SHT31;68762;51.980;5.646;2023-04-01T09:37:21;14.4;72.8
79187;SHT31;68762;51.980;5.646;2023-04-01T09:40:18;14.4;71.8
79187;SHT31;68762;51.980;5.646;2023-04-01T09:43:00;14.4;71.7
79187;SHT31;68762;51.980;5.646;2023-04-01T09:45:41;14.5;71.1
79187;SHT31;68762;51.980;5.646;2023-04-01T09:48:24;14.5;71.3
79187;SHT31;68762;51.980;5.646;2023-04-01T09:51:04;14.5;71.4
79187;SHT31;68762;51.980;5.646;2023-04-01T09:53:48;14.6;71.8
79187;SHT31;68762;51.980;5.646;2023-04-01T09:57:01;14.6;73.1
79187;SHT31;68762;51.980;5.646;2023-04-01T10:05:43;14.8;73.0
79187;SHT31;68762;51.980;5.646;2023-04-01T10:09:56;14.9;71.3
79187;SHT31;68762;51.980;5.646;2023-04-01T10:12:59;15.1;72.0
79187;SHT31;68762;51.980;5.646;2023-04-01T10:17:08;15.2;73.6
79187;SHT31;68762;51.980;5.646;2023-04-01T10:20:07;15.5;70.2
79187;SHT31;68762;51.980;5.646;2023-04-01T10:30:09;15.9;71.7
79187;SHT31;68762;51.980;5.646;2023-04-01T10:33:11;16.1;70.0
79187;SHT31;68762;51.980;5.646;2023-04-01T10:37:04;16.3;69.0
79187;SHT31;68762;51.980;5.646;2023-04-01T10:40:16;16.6;67.8
79187;SHT31;68762;51.980;5.646;2023-04-01T10:49:30;17.0;65.8
79187;SHT31;68762;51.980;5.646;2023-04-01T10:56:54;17.2;63.4
79187;SHT31;68762;51.980;5.646;2023-04-01T10:59:57;17.3;63.8
79187;SHT31;68762;51.980;5.646;2023-04-01T11:03:00;17.4;64.0
79187;SHT31;68762;51.980;5.646;2023-04-01T11:06:08;17.5;62.7
79187;SHT31;68762;51.980;5.646;2023-04-01T11:11:00;17.6;62.2
79187;SHT31;68762;51.980;5.646;2023-04-01T11:13:58;17.6;61.5
79187;SHT31;68762;51.980;5.646;2023-04-01T11:17:34;17.6;60.4
79187;SHT31;68762;51.980;5.646;2023-04-01T11:20:26;17.5;61.2
79187;SHT31;68762;51.980;5.646;2023-04-01T11:23:13;17.5;60.9
79187;SHT31;68762;51.980;5.646;2023-04-01T11:26:04;17.4;61.5
79187;SHT31;68762;51.980;5.646;2023-04-01T11:29:18;17.4;62.3
79187;SHT31;68762;51.980;5.646;2023-04-01T11:31:57;17.3;62.2
79187;SHT31;68762;51.980;5.646;2023-04-01T11:35:00;17.3;62.5
79187;SHT31;68762;51.980;5.646;2023-04-01T11:37:37;17.2;61.6
79187;SHT31;68762;51.980;5.646;2023-04-01T11:40:20;17.2;61.9
79187;SHT31;68762;51.980;5.646;2023-04-01T11:42:55;17.2;61.9
79187;SHT31;68762;51.980;5.646;2023-04-01T11:45:35;17.2;62.3
79187;SHT31;68762;51.980;5.646;2023-04-01T11:48:16;17.2;61.6
79187;SHT31;68762;51.980;5.646;2023-04-01T11:51:25;17.2;61.6
79187;SHT31;68762;51.980;5.646;2023-04-01T11:54:07;17.2;61.6
79187;SHT31;68762;51.980;5.646;2023-04-01T11:56:54;17.2;60.5
79187;SHT31;68762;51.980;5.646;2023-04-01T11:59:47;17.1;61.3
79187;SHT31;68762;51.980;5.646;2023-04-01T12:02:27;17.0;61.4
79187;SHT31;68762;51.980;5.646;2023-04-01T12:05:31;17.0;62.2
79187;SHT31;68762;51.980;5.646;2023-04-01T12:08:13;16.9;62.6
79187;SHT31;68762;51.980;5.646;2023-04-01T12:10:55;16.9;62.1
79187;SHT31;68762;51.980;5.646;2023-04-01T12:13:30;16.8;63.2
79187;SHT31;68762;51.980;5.646;2023-04-01T12:16:33;16.7;63.3
79187;SHT31;68762;51.980;5.646;2023-04-01T12:19:14;16.7;63.1
79187;SHT31;68762;51.980;5.646;2023-04-01T12:21:55;16.7;63.6
79187;SHT31;68762;51.980;5.646;2023-04-01T12:24:48;16.6;63.0
79187;SHT31;68762;51.980;5.646;2023-04-01T12:27:36;16.6;62.8
79187;SHT31;68762;51.980;5.646;2023-04-01T12:30:42;16.6;63.0
79187;SHT31;68762;51.980;5.646;2023-04-01T12:33:27;16.6;63.6
79187;SHT31;68762;51.980;5.646;2023-04-01T12:36:06;16.6;64.4
79187;SHT31;68762;51.980;5.646;2023-04-01T12:38:51;16.5;63.5
79187;SHT31;68762;51.980;5.646;2023-04-01T12:41:27;16.5;63.5
79187;SHT31;68762;51.980;5.646;2023-04-01T12:44:58;16.5;63.7
79187;SHT31;68762;51.980;5.646;2023-04-01T12:48:38;16.5;63.2
79187;SHT31;68762;51.980;5.646;2023-04-01T12:51:26;16.5;64.3
79187;SHT31;68762;51.980;5.646;2023-04-01T12:55:49;16.5;63.8
79187;SHT31;68762;51.980;5.646;2023-04-01T12:59:10;16.4;64.2
79187;SHT31;68762;51.980;5.646;2023-04-01T13:02:02;16.4;64.1
79187;SHT31;68762;51.980;5.646;2023-04-01T13:06:50;16.4;65.4
79187;SHT31;68762;51.980;5.646;2023-04-01T13:09:35;16.5;65.5
79187;SHT31;68762;51.980;5.646;2023-04-01T13:12:26;16.5;65.2
79187;SHT31;68762;51.980;5.646;2023-04-01T13:15:42;16.5;64.5
79187;SHT31;68762;51.980;5.646;2023-04-01T13:18:29;16.5;64.5
79187;SHT31;68762;51.980;5.646;2023-04-01T13:21:07;16.6;64.2
79187;SHT31;68762;51.980;5.646;2023-04-01T13:23:52;16.6;63.7
79187;SHT31;68762;51.980;5.646;2023-04-01T13:26:29;16.5;64.5
79187;SHT31;68762;51.980;5.646;2023-04-01T13:29:06;16.5;64.3
79187;SHT31;68762;51.980;5.646;2023-04-01T13:31:49;16.5;64.5
79187;SHT31;68762;51.980;5.646;2023-04-01T13:34:38;16.4;64.6
79187;SHT31;68762;51.980;5.646;2023-04-01T13:37:23;16.4;64.1
79187;SHT31;68762;51.980;5.646;2023-04-01T13:40:04;16.4;64.7
79187;SHT31;68762;51.980;5.646;2023-04-01T13:42:41;16.3;65.0
79187;SHT31;68762;51.980;5.646;2023-04-01T13:45:17;16.3;64.7
79187;SHT31;68762;51.980;5.646;2023-04-01T13:48:14;16.2;64.9
79187;SHT31;68762;51.980;5.646;2023-04-01T13:50:58;16.2;65.5
79187;SHT31;68762;51.980;5.646;2023-04-01T13:53:49;16.1;65.9
79187;SHT31;68762;51.980;5.646;2023-04-01T13:56:33;16.1;65.9
79187;SHT31;68762;51.980;5.646;2023-04-01T13:59:38;16.0;65.9
79187;SHT31;68762;51.980;5.646;2023-04-01T14:04:20;16.0;66.7
79187;SHT31;68762;51.980;5.646;2023-04-01T14:07:00;15.9;66.8
79187;SHT31;68762;51.980;5.646;2023-04-01T14:10:00;15.9;67.5
79187;SHT31;68762;51.980;5.646;2023-04-01T14:12:41;15.9;67.8
79187;SHT31;68762;51.980;5.646;2023-04-01T14:15:25;15.8;67.9
79187;SHT31;68762;51.980;5.646;2023-04-01T14:18:13;15.8;68.3
79187;SHT31;68762;51.980;5.646;2023-04-01T14:20:51;15.8;67.8
79187;SHT31;68762;51.980;5.646;2023-04-01T14:23:45;15.9;67.3
79187;SHT31;68762;51.980;5.646;2023-04-01T14:26:33;15.9;66.6
79187;SHT31;68762;51.980;5.646;2023-04-01T14:29:14;15.9;66.6
79187;SHT31;68762;51.980;5.646;2023-04-01T14:32:03;15.9;66.7
79187;SHT31;68762;51.980;5.646;2023-04-01T14:34:59;15.9;67.2
79187;SHT31;68762;51.980;5.646;2023-04-01T14:38:30;15.9;67.5
79187;SHT31;68762;51.980;5.646;2023-04-01T14:41:23;15.9;67.3
79187;SHT31;68762;51.980;5.646;2023-04-01T14:44:29;15.9;67.0
79187;SHT31;68762;51.980;5.646;2023-04-01T14:47:26;15.9;66.9
79187;SHT31;68762;51.980;5.646;2023-04-01T14:50:05;15.9;67.0
79187;SHT31;68762;51.980;5.646;2023-04-01T14:52:38;15.9;67.6
79187;SHT31;68762;51.980;5.646;2023-04-01T14:55:34;15.9;68.0
79187;SHT31;68762;51.980;5.646;2023-04-01T14:58:12;15.9;67.8
79187;SHT31;68762;51.980;5.646;2023-04-01T15:00:53;15.9;68.0
79187;SHT31;68762;51.980;5.646;2023-04-01T15:03:29;15.9;68.2
79187;SHT31;68762;51.980;5.646;2023-04-01T15:06:25;15.9;68.0
79187;SHT31;68762;51.980;5.646;2023-04-01T15:09:01;15.9;67.4
79187;SHT31;68762;51.980;5.646;2023-04-01T15:11:46;15.8;67.3
79187;SHT31;68762;51.980;5.646;2023-04-01T15:14:55;15.8;67.1
79187;SHT31;68762;51.980;5.646;2023-04-01T15:17:40;15.8;67.5
79187;SHT31;68762;51.980;5.646;2023-04-01T15:20:28;15.8;67.8
79187;SHT31;68762;51.980;5.646;2023-04-01T15:23:15;15.8;67.7
79187;SHT31;68762;51.980;5.646;2023-04-01T15:25:54;15.8;67.9
79187;SHT31;68762;51.980;5.646;2023-04-01T15:28:34;15.7;67.8
79187;SHT31;68762;51.980;5.646;2023-04-01T15:31:12;15.7;68.3
79187;SHT31;68762;51.980;5.646;2023-04-01T15:33:53;15.7;67.7
79187;SHT31;68762;51.980;5.646;2023-04-01T15:36:35;15.7;67.2
79187;SHT31;68762;51.980;5.646;2023-04-01T15:39:12;15.7;67.2
79187;SHT31;68762;51.980;5.646;2023-04-01T15:42:04;15.6;67.8
79187;SHT31;68762;51.980;5.646;2023-04-01T15:44:46;15.6;67.9
79187;SHT31;68762;51.980;5.646;2023-04-01T15:47:41;15.5;67.8
79187;SHT31;68762;51.980;5.646;2023-04-01T15:50:48;15.5;67.6
79187;SHT31;68762;51.980;5.646;2023-04-01T15:53:46;15.5;67.8
79187;SHT31;68762;51.980;5.646;2023-04-01T15:56:26;15.4;67.5
79187;SHT31;68762;51.980;5.646;2023-04-01T15:59:09;15.4;67.5
79187;SHT31;68762;51.980;5.646;2023-04-01T16:01:50;15.4;68.2
79187;SHT31;68762;51.980;5.646;2023-04-01T16:04:48;15.4;68.5
79187;SHT31;68762;51.980;5.646;2023-04-01T16:08:08;15.3;68.7
79187;SHT31;68762;51.980;5.646;2023-04-01T16:10:51;15.3;67.7
79187;SHT31;68762;51.980;5.646;2023-04-01T16:13:30;15.3;67.3
79187;SHT31;68762;51.980;5.646;2023-04-01T16:16:13;15.3;67.1
79187;SHT31;68762;51.980;5.646;2023-04-01T16:19:15;15.2;67.0
79187;SHT31;68762;51.980;5.646;2023-04-01T16:21:51;15.2;66.8
79187;SHT31;68762;51.980;5.646;2023-04-01T16:24:24;15.1;66.9
79187;SHT31;68762;51.980;5.646;2023-04-01T16:27:03;15.1;67.1
79187;SHT31;68762;51.980;5.646;2023-04-01T16:29:40;15.1;67.4
79187;SHT31;68762;51.980;5.646;2023-04-01T16:34:10;15.0;67.6
79187;SHT31;68762;51.980;5.646;2023-04-01T16:36:47;15.0;67.6
79187;SHT31;68762;51.980;5.646;2023-04-01T16:39:29;14.9;67.2
79187;SHT31;68762;51.980;5.646;2023-04-01T16:42:16;14.9;67.8
79187;SHT31;68762;51.980;5.646;2023-04-01T16:44:52;14.9;68.0
79187;SHT31;68762;51.980;5.646;2023-04-01T16:47:30;14.9;67.4
79187;SHT31;68762;51.980;5.646;2023-04-01T16:50:11;14.9;67.2
79187;SHT31;68762;51.980;5.646;2023-04-01T16:52:59;14.8;67.7
79187;SHT31;68762;51.980;5.646;2023-04-01T16:55:45;14.8;67.9
79187;SHT31;68762;51.980;5.646;2023-04-01T16:58:20;14.8;67.6
79187;SHT31;68762;51.980;5.646;2023-04-01T17:00:55;14.7;67.7
79187;SHT31;68762;51.980;5.646;2023-04-01T17:03:33;14.7;67.3
79187;SHT31;68762;51.980;5.646;2023-04-01T17:06:15;14.6;66.9
79187;SHT31;68762;51.980;5.646;2023-04-01T17:09:04;14.6;67.0
79187;SHT31;68762;51.980;5.646;2023-04-01T17:11:40;14.5;67.6
79187;SHT31;68762;51.980;5.646;2023-04-01T17:14:23;14.5;67.8
79187;SHT31;68762;51.980;5.646;2023-04-01T17:18:53;14.4;67.5
79187;SHT31;68762;51.980;5.646;2023-04-01T17:21:36;14.4;67.8
79187;SHT31;68762;51.980;5.646;2023-04-01T17:24:19;14.3;67.8
79187;SHT31;68762;51.980;5.646;2023-04-01T17:26:56;14.3;67.1
79187;SHT31;68762;51.980;5.646;2023-04-01T17:29:46;14.3;66.8
79187;SHT31;68762;51.980;5.646;2023-04-01T17:32:15;14.2;67.3
79187;SHT31;68762;51.980;5.646;2023-04-01T17:35:01;14.2;67.4
79187;SHT31;68762;51.980;5.646;2023-04-01T17:37:48;14.1;67.2
79187;SHT31;68762;51.980;5.646;2023-04-01T17:40:33;14.1;67.7
79187;SHT31;68762;51.980;5.646;2023-04-01T17:43:15;14.1;67.4
79187;SHT31;68762;51.980;5.646;2023-04-01T17:45:52;14.1;67.2
79187;SHT31;68762;51.980;5.646;2023-04-01T17:48:35;14.0;67.5
79187;SHT31;68762;51.980;5.646;2023-04-01T17:51:24;14.0;67.2
79187;SHT31;68762;51.980;5.646;2023-04-01T17:54:00;14.0;67.4
79187;SHT31;68762;51.980;5.646;2023-04-01T17:56:44;13.9;67.4
79187;SHT31;68762;51.980;5.646;2023-04-01T17:59:26;13.9;67.2
79187;SHT31;68762;51.980;5.646;2023-04-01T18:02:09;13.9;67.6
79187;SHT31;68762;51.980;5.646;2023-04-01T18:05:17;13.9;67.6
79187;SHT31;68762;51.980;5.646;2023-04-01T18:10:10;13.8;67.6
79187;SHT31;68762;51.980;5.646;2023-04-01T18:12:59;13.8;66.5
79187;SHT31;68762;51.980;5.646;2023-04-01T18:15:35;13.7;66.7
79187;SHT31;68762;51.980;5.646;2023-04-01T18:18:28;13.7;66.9